Time;durP1;ratioP1;P1;durP2;ratioP2;P2;SDS_P1;SDS_P2;PMS_P1;PMS_P2;Temp;Humidity;BMP_temperature;BMP_pressure;BME280_temperature;BME280_humidity;BME280_pressure;Samples;Min_cycle;Max_cycle;Signal;HPM_P1;HPM_P2
2022/11/28 00:01:37;;;;;;;100.30;56.20;;;;;;;2.58;77.69;99928.26;103053;1303;99253;-69
2022/11/28 00:04:06;;;;;;;87.50;48.80;;;;;;;2.45;77.67;99920.88;103224;1303;112534;-74
2022/11/28 00:06:44;;;;;;;88.10;52.40;;;;;;;2.33;77.50;99921.52;103102;1306;99340;-70
2022/11/28 00:09:15;;;;;;;90.10;54.00;;;;;;;2.22;77.65;99924.60;103129;1301;108039;-70
2022/11/28 00:11:45;;;;;;;99.00;52.90;;;;;;;2.17;77.80;99922.80;103025;1310;99380;-71
2022/11/28 00:14:16;;;;;;;84.40;49.70;;;;;;;2.13;77.92;99921.15;103145;1303;98304;-70
2022/11/28 00:16:45;;;;;;;90.20;51.20;;;;;;;2.12;78.21;99918.02;103108;1301;111167;-72
2022/11/28 00:19:13;;;;;;;87.80;50.00;;;;;;;2.13;77.98;99913.45;103174;1304;99024;-70
2022/11/28 00:21:41;;;;;;;79.50;45.40;;;;;;;2.14;78.04;99913.95;103035;1294;107646;-70
2022/11/28 00:24:09;;;;;;;81.70;46.00;;;;;;;2.08;77.85;99917.23;103025;1301;99345;-69
2022/11/28 00:26:40;;;;;;;84.00;47.30;;;;;;;2.01;77.82;99917.95;103071;1303;99232;-71
2022/11/28 00:29:09;;;;;;;83.20;48.40;;;;;;;1.93;77.78;99914.45;103145;1304;112338;-71
2022/11/28 00:31:43;;;;;;;77.80;46.00;;;;;;;1.85;77.70;99909.56;103176;1293;99236;-71
2022/11/28 00:34:12;;;;;;;;;;;;;;;1.79;77.70;99909.70;103120;1301;105945;-69
2022/11/28 00:36:44;;;;;;;79.60;45.20;;;;;;;1.73;77.57;99910.00;103191;1293;98989;-70
2022/11/28 00:39:14;;;;;;;81.70;46.60;;;;;;;1.72;77.73;99914.94;103306;1303;99307;-69
2022/11/28 00:41:43;;;;;;;76.70;44.90;;;;;;;1.69;77.96;99920.23;103223;1301;112262;-69
2022/11/28 00:44:12;;;;;;;73.10;43.90;;;;;;;1.67;77.60;99916.08;103227;1303;99350;-69
2022/11/28 00:46:40;;;;;;;77.50;45.50;;;;;;;1.66;77.57;99917.51;103088;1302;107528;-70
2022/11/28 00:49:08;;;;;;;76.80;45.30;;;;;;;1.65;77.98;99917.17;103046;1305;99424;-70
2022/11/28 00:51:37;;;;;;;82.00;47.10;;;;;;;1.65;78.15;99912.81;103254;1303;99253;-68
2022/11/28 00:54:06;;;;;;;84.80;48.30;;;;;;;1.65;77.90;99911.40;103278;1304;113075;-70
2022/11/28 00:56:39;;;;;;;85.60;48.70;;;;;;;1.64;77.97;99911.77;103324;1307;98967;-71
2022/11/28 00:59:07;;;;;;;78.80;46.40;;;;;;;1.67;77.86;99910.67;103216;1303;107366;-71
2022/11/28 01:01:42;;;;;;;83.90;49.60;;;;;;;1.70;77.83;99908.52;103210;1299;99281;-70
2022/11/28 01:04:16;;;;;;;82.70;46.60;;;;;;;1.74;77.95;99911.38;103233;1301;99899;-69
2022/11/28 01:06:48;;;;;;;74.90;43.70;;;;;;;1.77;78.09;99908.87;103257;1298;112590;-70
2022/11/28 01:09:20;;;;;;;74.20;43.60;;;;;;;1.77;77.95;99907.13;103258;1304;99261;-71
2022/11/28 01:11:50;;;;;;;74.00;44.00;;;;;;;1.75;77.85;99906.98;103281;1302;107296;-72
2022/11/28 01:14:23;;;;;;;74.70;43.90;;;;;;;1.75;78.00;99901.22;103208;1303;99376;-71
2022/11/28 01:16:51;;;;;;;74.30;43.90;;;;;;;1.75;78.03;99895.26;103054;1306;99124;-70
2022/11/28 01:19:20;;;;;;;73.00;43.20;;;;;;;1.75;78.13;99889.86;103213;1302;112234;-70
2022/11/28 01:21:48;;;;;;;74.60;43.80;;;;;;;1.75;77.92;99890.38;103223;1301;96481;-71
2022/11/28 01:24:16;;;;;;;75.20;42.30;;;;;;;1.74;77.88;99888.13;103204;1300;107511;-69
2022/11/28 01:26:45;;;;;;;72.30;42.70;;;;;;;1.72;77.92;99885.02;103044;1303;99954;-71
2022/11/28 01:29:13;;;;;;;74.40;42.90;;;;;;;1.71;78.01;99880.50;103256;1298;99237;-70
2022/11/28 01:31:42;;;;;;;70.10;43.20;;;;;;;1.71;78.21;99876.30;103220;1303;112902;-71
2022/11/28 01:34:10;;;;;;;69.80;39.30;;;;;;;1.72;77.96;99875.59;103196;1302;99295;-71
2022/11/28 01:36:38;;;;;;;66.40;41.10;;;;;;;1.72;77.88;99867.37;103254;1303;107206;-71
2022/11/28 01:39:06;;;;;;;67.90;40.30;;;;;;;1.72;77.92;99868.92;103255;1303;99325;-71
2022/11/28 01:41:34;;;;;;;70.10;42.40;;;;;;;1.74;77.75;99863.98;103218;1304;99232;-70
2022/11/28 01:44:14;;;;;;;69.00;39.60;;;;;;;1.78;78.26;99863.73;103229;1305;112556;-71
2022/11/28 01:46:42;;;;;;;64.70;39.30;;;;;;;1.80;78.37;99865.26;103302;1303;99330;-71
2022/11/28 01:49:25;;;;;;;68.90;40.10;;;;;;;1.80;78.08;99862.83;103274;1296;107554;-68
2022/11/28 01:52:06;;;;;;;71.10;40.80;;;;;;;1.79;77.94;99865.46;103241;1298;99262;-71
2022/11/28 01:54:37;;;;;;;67.00;40.50;;;;;;;1.77;77.89;99860.60;103230;1293;99217;-70
2022/11/28 01:57:11;;;;;;;66.70;40.70;;;;;;;1.79;78.17;99860.91;103221;1295;112554;-70
2022/11/28 01:59:48;;;;;;;69.80;39.90;;;;;;;1.82;77.90;99858.73;103187;1296;99228;-71
2022/11/28 02:02:24;;;;;;;71.20;41.60;;;;;;;1.86;77.98;99864.06;103284;1296;107537;-70
2022/11/28 02:04:53;;;;;;;77.80;44.60;;;;;;;1.90;78.26;99862.57;103151;1303;99326;-71
2022/11/28 02:07:21;;;;;;;100.50;56.50;;;;;;;1.93;78.04;99866.00;103259;1301;99329;-71
2022/11/28 02:09:49;;;;;;;98.80;54.50;;;;;;;1.93;78.40;99865.98;103206;1294;113464;-71
2022/11/28 02:12:47;;;;;;;102.60;56.30;;;;;;;1.96;78.08;99862.25;103268;1303;96563;-72
2022/11/28 02:15:25;;;;;;;90.30;48.40;;;;;;;1.99;78.07;99858.86;103132;1301;107356;-71
2022/11/28 02:18:24;;;;;;;79.30;45.60;;;;;;;2.02;77.91;99854.92;103233;1302;99697;-70
2022/11/28 02:21:29;;;;;;;74.50;41.70;;;;;;;2.04;78.17;99852.77;103248;1295;99254;-70
2022/11/28 02:24:19;;;;;;;76.60;41.80;;;;;;;2.02;78.39;99853.19;103226;1298;112543;-69
2022/11/28 02:27:06;;;;;;;68.70;40.40;;;;;;;1.99;77.97;99851.67;103192;1303;99233;-70
2022/11/28 02:29:54;;;;;;;75.20;40.70;;;;;;;1.97;78.18;99849.83;103215;1303;107520;-69
2022/11/28 02:32:31;;;;;;;72.50;40.70;;;;;;;1.93;78.39;99852.52;103181;1301;99941;-69
2022/11/28 02:35:21;;;;;;;77.10;41.80;;;;;;;1.89;77.78;99853.50;103270;1296;99228;-69
2022/11/28 02:38:18;;;;;;;76.90;43.50;;;;;;;1.83;78.12;99853.82;103229;1303;112632;-70
2022/11/28 02:40:52;;;;;;;72.00;40.50;;;;;;;1.77;77.97;99852.55;103185;1301;100875;-68
2022/11/28 02:43:34;;;;;;;72.80;41.90;;;;;;;1.72;77.92;99849.87;103189;1300;108024;-69
2022/11/28 02:46:21;;;;;;;66.60;39.50;;;;;;;1.68;78.03;99849.61;103227;1298;99307;-69
2022/11/28 02:48:53;;;;;;;67.40;38.80;;;;;;;1.63;78.29;99846.77;103251;1296;99236;-72
2022/11/28 02:51:55;;;;;;;66.40;37.30;;;;;;;1.60;78.31;99842.65;103236;1297;112233;-69
2022/11/28 02:54:26;;;;;;;65.20;36.90;;;;;;;1.56;78.54;99839.08;103208;1297;99223;-69
2022/11/28 02:56:54;;;;;;;67.20;39.40;;;;;;;1.48;78.32;99833.64;103187;1304;108201;-70
2022/11/28 02:59:28;;;;;;;66.80;36.40;;;;;;;1.44;78.23;99829.72;103207;1297;99212;-68
2022/11/28 03:01:58;;;;;;;64.50;37.50;;;;;;;1.39;78.33;99831.42;103316;1295;99262;-69
2022/11/28 03:04:53;;;;;;;67.10;39.60;;;;;;;1.35;78.12;99828.52;103253;1304;112556;-69
2022/11/28 03:07:46;;;;;;;63.10;37.00;;;;;;;1.31;78.43;99827.57;103135;1297;97956;-70
2022/11/28 03:10:29;;;;;;;71.50;39.30;;;;;;;1.29;78.44;99829.86;103176;1304;108206;-69
2022/11/28 03:13:17;;;;;;;60.70;34.70;;;;;;;1.29;78.26;99830.05;103188;1296;99235;-70
2022/11/28 03:16:12;;;;;;;59.90;34.50;;;;;;;1.28;78.56;99831.65;103224;1295;99233;-71
2022/11/28 03:18:54;;;;;;;61.80;35.40;;;;;;;1.29;78.42;99831.10;103249;1297;112540;-71
2022/11/28 03:21:38;;;;;;;65.60;36.60;;;;;;;1.31;78.57;99821.80;103197;1298;99253;-70
2022/11/28 03:24:24;;;;;;;68.50;36.20;;;;;;;1.31;78.60;99818.98;103198;1289;107893;-72
2022/11/28 03:27:01;;;;;;;65.10;36.90;;;;;;;1.34;78.50;99814.21;103106;1303;99197;-70
2022/11/28 03:29:43;;;;;;;66.80;38.50;;;;;;;1.39;78.79;99810.79;103075;1298;99254;-71
2022/11/28 03:32:26;;;;;;;61.30;33.50;;;;;;;1.43;78.73;99811.56;103059;1303;113177;-70
2022/11/28 03:35:19;;;;;;;60.60;33.70;;;;;;;1.46;78.58;99812.02;103254;1297;99235;-69
2022/11/28 03:38:01;;;;;;;55.80;31.30;;;;;;;1.49;78.66;99807.58;103203;1303;107085;-71
2022/11/28 03:40:40;;;;;;;55.30;29.60;;;;;;;1.47;78.36;99801.49;103159;1301;99332;-70
2022/11/28 03:43:16;;;;;;;55.40;30.00;;;;;;;1.44;78.53;99804.38;103234;1304;96594;-69
2022/11/28 03:45:50;;;;;;;53.20;27.60;;;;;;;1.37;78.34;99802.09;103213;1303;112593;-69
2022/11/28 03:48:33;;;;;;;48.80;27.50;;;;;;;1.31;78.59;99803.27;103282;1295;99927;-70
2022/11/28 03:51:09;;;;;;;47.70;26.20;;;;;;;1.27;78.36;99802.66;103260;1300;106098;-70
2022/11/28 03:53:50;;;;;;;47.90;25.00;;;;;;;1.25;78.57;99805.52;103132;1304;99243;-69
2022/11/28 03:56:37;;;;;;;46.60;25.30;;;;;;;1.28;78.37;99806.31;103268;1297;99260;-70
2022/11/28 03:59:12;;;;;;;48.80;25.20;;;;;;;1.33;78.59;99804.80;103109;1304;112194;-71
2022/11/28 04:02:01;;;;;;;45.80;25.70;;;;;;;1.37;78.67;99800.00;103293;1296;96563;-70
2022/11/28 04:04:35;;;;;;;46.80;25.30;;;;;;;1.38;78.38;99792.12;103134;1298;107462;-71
2022/11/28 04:07:45;;;;;;;48.60;27.10;;;;;;;1.39;78.54;99793.66;103289;1298;99995;-70
2022/11/28 04:10:32;;;;;;;46.90;25.50;;;;;;;1.43;78.51;99789.02;103054;1298;99308;-70
2022/11/28 04:13:28;;;;;;;43.70;24.30;;;;;;;1.45;78.57;99787.38;103084;1303;113318;-70
2022/11/28 04:16:06;;;;;;;49.90;26.50;;;;;;;1.48;78.33;99782.95;103145;1300;99312;-69
2022/11/28 04:19:09;;;;;;;48.50;25.40;;;;;;;1.51;78.51;99784.81;103088;1288;107132;-72
2022/11/28 04:21:53;;;;;;;45.20;25.70;;;;;;;1.56;78.61;99784.16;103205;1297;99246;-71
2022/11/28 04:24:41;;;;;;;50.00;27.70;;;;;;;1.60;78.44;99791.59;103331;1296;96532;-70
2022/11/28 04:27:16;;;;;;;51.90;28.20;;;;;;;1.62;78.55;99792.59;103287;1300;112425;-70
2022/11/28 04:29:52;;;;;;;46.00;25.10;;;;;;;1.63;78.10;99794.12;103144;1298;99400;-71
2022/11/28 04:32:23;;;;;;;48.40;26.30;;;;;;;1.63;78.35;99792.05;103066;1304;106371;-70
2022/11/28 04:35:01;;;;;;;50.80;27.80;;;;;;;1.64;78.20;99797.27;103213;1301;96482;-69
2022/11/28 04:37:31;;;;;;;47.00;25.10;;;;;;;1.64;78.19;99798.64;103255;1302;99487;-70
2022/11/28 04:40:01;;;;;;;47.40;25.40;;;;;;;1.63;78.12;99797.98;103132;1303;112629;-73
2022/11/28 04:42:36;;;;;;;46.00;26.00;;;;;;;1.61;78.41;99793.15;103192;1297;99992;-71
2022/11/28 04:45:18;;;;;;;44.20;24.80;;;;;;;1.59;78.58;99791.79;103120;1297;152548;-71
2022/11/28 04:47:47;;;;;;;44.30;24.20;;;;;;;1.58;78.19;99789.73;103150;1295;99233;-71
2022/11/28 04:50:15;;;;;;;46.20;24.70;;;;;;;1.58;78.36;99787.27;103177;1305;99214;-70
2022/11/28 04:52:58;;;;;;;47.30;25.80;;;;;;;1.56;78.45;99787.48;103231;1289;112538;-71
2022/11/28 04:55:48;;;;;;;47.70;25.70;;;;;;;1.54;78.37;99787.90;103131;1297;96569;-71
2022/11/28 04:58:28;;;;;;;45.10;24.90;;;;;;;1.50;78.38;99788.85;103221;1304;107573;-71
2022/11/28 05:00:58;;;;;;;48.80;25.30;;;;;;;1.48;78.53;99783.48;103073;1288;99333;-71
2022/11/28 05:03:30;;;;;;;51.20;28.00;;;;;;;1.48;78.68;99784.71;103204;1297;99115;-70
2022/11/28 05:05:58;;;;;;;44.10;25.00;;;;;;;1.46;78.27;99785.79;103069;1303;111512;-70
2022/11/28 05:08:26;;;;;;;46.40;25.40;;;;;;;1.46;78.31;99789.64;103187;1296;99350;-71
2022/11/28 05:10:54;;;;;;;45.70;24.50;;;;;;;1.46;78.43;99788.08;103213;1304;107137;-70
2022/11/28 05:13:22;;;;;;;42.50;23.70;;;;;;;1.47;78.39;99786.46;103203;1304;99450;-70
2022/11/28 05:15:51;;;;;;;43.80;25.30;;;;;;;1.50;78.17;99788.34;103267;1304;99166;-71
2022/11/28 05:18:19;;;;;;;47.90;25.80;;;;;;;1.52;78.52;99785.48;103280;1304;112712;-71
2022/11/28 05:20:48;;;;;;;49.30;27.40;;;;;;;1.56;78.46;99784.88;103241;1294;99260;-70
2022/11/28 05:23:16;;;;;;;49.80;26.30;;;;;;;1.58;78.69;99782.89;103182;1303;107131;-71
2022/11/28 05:25:44;;;;;;;50.00;25.70;;;;;;;1.62;78.15;99786.66;103213;1304;98843;-72
2022/11/28 05:28:11;;;;;;;48.70;26.80;;;;;;;1.64;78.45;99787.64;103060;1303;96690;-71
2022/11/28 05:30:39;;;;;;;49.10;25.90;;;;;;;1.67;78.29;99790.55;103075;1296;112374;-71
2022/11/28 05:33:07;;;;;;;48.00;24.90;;;;;;;1.68;78.35;99792.10;103108;1297;99333;-70
2022/11/28 05:35:38;;;;;;;51.70;28.70;;;;;;;1.70;78.49;99791.18;103196;1295;107549;-73
2022/11/28 05:38:06;;;;;;;59.10;32.10;;;;;;;1.71;78.23;99790.29;103240;1305;99270;-70
2022/11/28 05:40:43;;;;;;;63.20;35.40;;;;;;;1.72;78.63;99787.09;103185;1304;99380;-69
2022/11/28 05:43:11;;;;;;;59.10;34.30;;;;;;;1.74;78.30;99788.63;103260;1293;113174;-71
2022/11/28 05:45:41;;;;;;;62.60;34.60;;;;;;;1.76;78.50;99790.16;103264;1303;99179;-70
2022/11/28 05:48:10;;;;;;;59.20;31.50;;;;;;;1.77;78.39;99788.71;103034;1301;107512;-71
2022/11/28 05:50:40;;;;;;;59.10;32.30;;;;;;;1.80;78.40;99788.15;103107;1288;97584;-71
2022/11/28 05:53:09;;;;;;;60.50;32.60;;;;;;;1.81;78.56;99783.23;103277;1298;99337;-71
2022/11/28 05:55:40;;;;;;;62.20;33.30;;;;;;;1.82;78.53;99781.96;103228;1303;111315;-71
2022/11/28 05:58:09;;;;;;;57.60;32.30;;;;;;;1.82;78.35;99776.36;103262;1297;96520;-70
2022/11/28 06:00:37;;;;;;;59.60;33.90;;;;;;;1.83;78.36;99779.84;103065;1298;107536;-71
2022/11/28 06:03:05;;;;;;;58.90;31.20;;;;;;;1.84;78.52;99777.90;103270;1295;99308;-71
2022/11/28 06:05:33;;;;;;;56.10;30.10;;;;;;;1.82;78.30;99776.91;103273;1304;99409;-72
2022/11/28 06:08:11;;;;;;;55.90;31.10;;;;;;;1.78;78.23;99777.68;103264;1296;112285;-71
2022/11/28 06:10:39;;;;;;;57.60;32.40;;;;;;;1.71;78.26;99776.80;103335;1294;99320;-70
2022/11/28 06:13:08;;;;;;;60.80;31.40;;;;;;;1.66;78.33;99774.48;103092;1304;106507;-71
2022/11/28 06:15:36;;;;;;;57.80;30.90;;;;;;;1.65;78.65;99775.73;103037;1297;97945;-70
2022/11/28 06:18:05;;;;;;;55.60;31.70;;;;;;;1.67;78.70;99772.55;103203;1298;99271;-70
2022/11/28 06:20:36;;;;;;;54.60;32.20;;;;;;;1.67;78.82;99770.61;103181;1303;112571;-71
2022/11/28 06:23:03;;;;;;;60.80;32.10;;;;;;;1.68;78.68;99770.23;103200;1297;98830;-71
2022/11/28 06:25:31;;;;;;;55.30;31.10;;;;;;;1.69;78.65;99773.19;103242;1302;107428;-73
2022/11/28 06:27:59;;;;;;;54.90;30.70;;;;;;;1.70;78.45;99778.23;103236;1297;96899;-71
2022/11/28 06:30:27;;;;;;;58.70;31.60;;;;;;;1.71;78.49;99781.17;103314;1297;99245;-71
2022/11/28 06:32:55;;;;;;;62.90;34.80;;;;;;;1.72;78.47;99779.05;103241;1297;112201;-71
2022/11/28 06:35:22;;;;;;;57.80;32.70;;;;;;;1.73;78.47;99777.64;103228;1305;99246;-72
2022/11/28 06:37:50;;;;;;;56.00;31.00;;;;;;;1.74;78.42;99782.15;103174;1295;108352;-70
2022/11/28 06:40:18;;;;;;;55.10;32.60;;;;;;;1.75;78.52;99778.64;103201;1300;99971;-71
2022/11/28 06:42:49;;;;;;;56.50;31.30;;;;;;;1.77;78.46;99779.64;103208;1295;99232;-71
2022/11/28 06:45:17;;;;;;;56.00;31.90;;;;;;;1.77;78.46;99777.70;103210;1297;112227;-70
2022/11/28 06:47:47;;;;;;;54.20;31.10;;;;;;;1.79;78.70;99776.09;103282;1295;99315;-71
2022/11/28 06:50:15;;;;;;;60.40;33.50;;;;;;;1.80;78.49;99774.33;103222;1303;106517;-71
2022/11/28 06:52:43;;;;;;;57.70;31.80;;;;;;;1.81;78.44;99777.09;103189;1295;96565;-71
2022/11/28 06:55:11;;;;;;;56.90;32.00;;;;;;;1.82;78.64;99772.17;103211;1304;99304;-71
2022/11/28 06:57:39;;;;;;;59.80;32.20;;;;;;;1.83;78.60;99775.64;103212;1297;112567;-70
2022/11/28 07:00:07;;;;;;;55.60;31.70;;;;;;;1.84;78.52;99779.27;103220;1297;97118;-72
2022/11/28 07:02:35;;;;;;;57.40;33.30;;;;;;;1.85;78.54;99779.77;102967;1298;107598;-71
2022/11/28 07:05:04;;;;;;;60.70;32.40;;;;;;;1.87;78.59;99777.29;103109;1304;99332;-72
2022/11/28 07:07:32;;;;;;;55.90;33.00;;;;;;;1.89;78.60;99772.86;103158;1304;99220;-71
2022/11/28 07:10:17;;;;;;;57.50;33.20;;;;;;;1.90;78.66;99769.15;103142;1291;112577;-71
2022/11/28 07:12:45;;;;;;;57.20;32.10;;;;;;;1.91;78.63;99768.97;103153;1296;96616;-72
2022/11/28 07:15:12;;;;;;;53.10;31.50;;;;;;;1.92;78.46;99774.54;103096;1295;106064;-71
2022/11/28 07:17:40;;;;;;;60.10;33.90;;;;;;;1.92;78.56;99772.43;103048;1303;99175;-71
2022/11/28 07:20:08;;;;;;;58.60;29.70;;;;;;;1.90;78.45;99774.06;103266;1297;99130;-71
2022/11/28 07:22:37;;;;;;;59.30;33.10;;;;;;;1.89;78.55;99773.21;103269;1297;112229;-71
2022/11/28 07:25:06;;;;;;;63.40;33.80;;;;;;;1.89;78.37;99773.38;103171;1304;99303;-71
2022/11/28 07:27:34;;;;;;;57.60;33.70;;;;;;;1.90;78.40;99774.23;103281;1303;107592;-71
2022/11/28 07:30:03;;;;;;;63.00;33.60;;;;;;;1.90;78.64;99774.05;103180;1297;99396;-71
2022/11/28 07:32:31;;;;;;;64.20;34.30;;;;;;;1.92;78.45;99781.19;103197;1304;99355;-71
2022/11/28 07:34:59;;;;;;;61.50;35.30;;;;;;;1.92;78.60;99780.66;103069;1296;112866;-72
2022/11/28 07:37:27;;;;;;;67.00;35.60;;;;;;;1.92;78.50;99774.88;103084;1296;99333;-73
2022/11/28 07:39:55;;;;;;;66.50;35.10;;;;;;;1.95;78.54;99775.33;103026;1297;107462;-70
2022/11/28 07:42:23;;;;;;;60.80;35.00;;;;;;;1.99;78.67;99777.50;103037;1304;99355;-70
2022/11/28 07:44:50;;;;;;;60.70;34.70;;;;;;;2.04;78.72;99778.08;103174;1304;99338;-71
2022/11/28 07:47:18;;;;;;;60.50;34.80;;;;;;;2.09;78.66;99778.11;103062;1297;111586;-71
2022/11/28 07:49:46;;;;;;;63.40;35.10;;;;;;;2.14;78.96;99776.23;103072;1303;99106;-71
2022/11/28 07:52:14;;;;;;;61.90;34.40;;;;;;;2.19;78.89;99775.56;103239;1297;107191;-72
2022/11/28 07:54:43;;;;;;;63.30;36.50;;;;;;;2.26;78.78;99777.67;103213;1298;99915;-73
2022/11/28 07:57:10;;;;;;;65.70;34.70;;;;;;;2.32;78.71;99776.80;103088;1304;99313;-72
2022/11/28 07:59:40;;;;;;;57.90;32.30;;;;;;;2.39;78.82;99774.35;103101;1296;112493;-72
2022/11/28 08:02:10;;;;;;;57.30;31.00;;;;;;;2.45;78.92;99772.42;103131;1304;99366;-70
2022/11/28 08:04:38;;;;;;;53.70;29.60;;;;;;;2.51;78.69;99768.92;103163;1288;107202;-72
2022/11/28 08:07:15;;;;;;;54.10;27.60;;;;;;;2.57;78.43;99762.98;103248;1302;99331;-71
2022/11/28 08:09:44;;;;;;;45.50;24.50;;;;;;;2.61;78.67;99762.36;103301;1301;99196;-71
2022/11/28 08:12:13;;;;;;;47.30;26.00;;;;;;;2.65;78.47;99759.43;103130;1297;111450;-74
2022/11/28 08:14:41;;;;;;;42.60;24.10;;;;;;;2.71;78.78;99762.77;103013;1296;99312;-72
2022/11/28 08:17:10;;;;;;;38.40;21.90;;;;;;;2.76;78.39;99764.89;103139;1301;106732;-70
2022/11/28 08:19:37;;;;;;;41.50;21.70;;;;;;;2.79;78.42;99762.19;103035;1307;99315;-70
2022/11/28 08:22:05;;;;;;;40.50;21.40;;;;;;;2.79;78.14;99759.02;103188;1297;96632;-71
2022/11/28 08:24:33;;;;;;;40.70;21.60;;;;;;;2.82;78.32;99759.13;103189;1296;112575;-72
2022/11/28 08:27:01;;;;;;;41.10;22.00;;;;;;;2.85;78.61;99757.63;103185;1296;96568;-71
2022/11/28 08:29:29;;;;;;;37.90;20.30;;;;;;;2.89;78.52;99760.30;103242;1293;107690;-71
2022/11/28 08:31:57;;;;;;;36.20;18.90;;;;;;;2.92;78.38;99758.46;103216;1295;99332;-72
2022/11/28 08:34:25;;;;;;;34.90;18.70;;;;;;;2.94;78.19;99757.70;103134;1296;99318;-71
2022/11/28 08:36:52;;;;;;;36.40;18.80;;;;;;;2.97;78.61;99756.02;103258;1296;112511;-71
2022/11/28 08:39:20;;;;;;;34.70;19.20;;;;;;;3.00;78.52;99755.27;103293;1296;99311;-74
2022/11/28 08:41:58;;;;;;;35.90;18.40;;;;;;;3.01;78.59;99756.28;103290;1296;107402;-71
2022/11/28 08:44:26;;;;;;;37.30;19.80;;;;;;;2.93;78.07;99758.44;103251;1304;96471;-71
2022/11/28 08:46:58;;;;;;;36.80;18.50;;;;;;;2.87;77.79;99756.33;103175;1296;99255;-71
2022/11/28 08:49:27;;;;;;;36.60;20.50;;;;;;;2.84;78.21;99750.81;103126;1296;112640;-71
2022/11/28 08:51:55;;;;;;;35.50;17.70;;;;;;;2.89;78.25;99752.23;103259;1296;99234;-71
2022/11/28 08:54:23;;;;;;;35.00;17.10;;;;;;;2.91;78.07;99753.08;103137;1289;106655;-71
2022/11/28 08:56:51;;;;;;;37.50;19.20;;;;;;;2.89;78.17;99749.96;103112;1297;99308;-71
2022/11/28 08:59:19;;;;;;;37.30;18.30;;;;;;;2.94;78.20;99749.48;103176;1295;96563;-72
2022/11/28 09:01:47;;;;;;;37.50;19.90;;;;;;;2.99;78.41;99747.58;103172;1300;112264;-70
2022/11/28 09:04:15;;;;;;;38.00;18.90;;;;;;;3.06;78.12;99749.13;103108;1288;99201;-70
2022/11/28 09:06:43;;;;;;;36.70;18.70;;;;;;;3.13;78.41;99748.89;103142;1297;106477;-70
2022/11/28 09:09:12;;;;;;;36.40;16.80;;;;;;;3.20;78.36;99746.04;103039;1297;99321;-70
2022/11/28 09:11:41;;;;;;;38.80;19.60;;;;;;;3.25;78.05;99739.74;103279;1304;99331;-71
2022/11/28 09:14:09;;;;;;;36.10;19.70;;;;;;;3.30;78.22;99734.16;103086;1297;112550;-71
2022/11/28 09:16:39;;;;;;;36.00;17.00;;;;;;;3.35;78.26;99730.65;103225;1303;99691;-71
2022/11/28 09:19:09;;;;;;;33.60;16.50;;;;;;;3.41;78.24;99727.13;103188;1303;108753;-71
2022/11/28 09:21:37;;;;;;;32.50;15.20;;;;;;;3.48;78.18;99725.87;103145;1297;99269;-71
2022/11/28 09:24:07;;;;;;;30.00;14.90;;;;;;;3.52;78.16;99723.09;103056;1305;99191;-71
2022/11/28 09:26:34;;;;;;;33.50;15.40;;;;;;;3.54;78.13;99724.95;103159;1287;112402;-70
2022/11/28 09:29:02;;;;;;;30.50;14.30;;;;;;;3.57;77.83;99726.79;103226;1297;99367;-71
2022/11/28 09:31:32;;;;;;;31.80;15.10;;;;;;;3.60;78.00;99724.80;103195;1302;107279;-71
2022/11/28 09:34:00;;;;;;;33.20;14.90;;;;;;;3.64;77.99;99721.34;103081;1297;96571;-70
2022/11/28 09:36:31;;;;;;;31.50;16.20;;;;;;;3.68;77.89;99718.02;103265;1298;98299;-71
2022/11/28 09:38:59;;;;;;;31.90;15.20;;;;;;;3.70;77.92;99717.77;103270;1295;112290;-71
2022/11/28 09:41:31;;;;;;;31.60;14.70;;;;;;;3.74;77.83;99718.19;103267;1295;99351;-70
2022/11/28 09:44:08;;;;;;;31.50;15.60;;;;;;;3.76;77.85;99715.29;103122;1303;107250;-70
2022/11/28 09:46:39;;;;;;;30.90;15.80;;;;;;;3.78;77.83;99711.39;103175;1301;96546;-71
2022/11/28 09:49:37;;;;;;;31.30;14.50;;;;;;;3.79;77.73;99712.55;103232;1299;99202;-69
2022/11/28 09:52:43;;;;;;;29.70;14.60;;;;;;;3.84;77.80;99707.31;103077;1303;112610;-70
2022/11/28 09:55:42;;;;;;;31.20;15.20;;;;;;;3.87;77.75;99700.36;103227;1284;99194;-71
2022/11/28 09:58:22;;;;;;;30.50;14.10;;;;;;;3.90;77.80;99699.38;103101;1301;107531;-71
2022/11/28 10:01:11;;;;;;;28.50;13.90;;;;;;;3.91;77.73;99697.23;103188;1304;100124;-70
2022/11/28 10:03:52;;;;;;;29.90;13.20;;;;;;;3.95;77.78;99692.88;103180;1299;96479;-70
2022/11/28 10:06:43;;;;;;;30.20;13.40;;;;;;;4.00;77.66;99689.56;103197;1296;112748;-71
2022/11/28 10:09:11;;;;;;;32.20;14.30;;;;;;;4.02;77.85;99683.67;103189;1303;96589;-70
2022/11/28 10:11:49;;;;;;;29.70;13.70;;;;;;;4.05;77.74;99674.82;103274;1302;107500;-70
2022/11/28 10:14:52;;;;;;;27.70;12.40;;;;;;;4.07;77.70;99673.00;103196;1295;96539;-70
2022/11/28 10:17:36;;;;;;;28.50;11.80;;;;;;;4.07;77.48;99669.50;103307;1302;99358;-71
2022/11/28 10:20:17;;;;;;;27.60;12.30;;;;;;;4.06;77.45;99667.60;103093;1297;112549;-71
2022/11/28 10:22:56;;;;;;;26.00;11.10;;;;;;;4.04;77.33;99664.14;103169;1287;99934;-71
2022/11/28 10:25:29;;;;;;;24.70;11.20;;;;;;;3.93;76.52;99663.65;103032;1289;105809;-72
2022/11/28 10:27:57;;;;;;;24.00;10.50;;;;;;;3.81;77.01;99662.84;103203;1295;97095;-71
2022/11/28 10:30:35;;;;;;;23.50;10.20;;;;;;;3.83;77.36;99662.27;103288;1303;99343;-71
2022/11/28 10:33:35;;;;;;;24.00;9.50;;;;;;;3.86;77.42;99655.29;103176;1292;112201;-70
2022/11/28 10:36:03;;;;;;;21.50;10.10;;;;;;;3.94;77.35;99650.13;103130;1296;97313;-70
2022/11/28 10:38:35;;;;;;;22.90;9.60;;;;;;;3.98;77.27;99650.14;103200;1293;107535;-71
2022/11/28 10:41:20;;;;;;;25.40;10.60;;;;;;;4.03;77.33;99648.55;103116;1304;99209;-71
2022/11/28 10:44:05;;;;;;;21.70;9.40;;;;;;;4.10;77.37;99645.16;103231;1296;99282;-71
2022/11/28 10:46:45;;;;;;;22.50;8.80;;;;;;;4.14;77.32;99641.14;103202;1303;112497;-71
2022/11/28 10:49:16;;;;;;;20.40;8.10;;;;;;;4.20;77.16;99646.70;103065;1296;96536;-71
2022/11/28 10:52:03;;;;;;;19.90;8.30;;;;;;;4.22;77.29;99641.20;103215;1295;107615;-71
2022/11/28 10:55:02;;;;;;;21.10;8.60;;;;;;;4.26;77.10;99638.77;103182;1294;99321;-70
2022/11/28 10:58:02;;;;;;;23.90;9.00;;;;;;;4.28;77.01;99637.66;103034;1304;99312;-71
2022/11/28 11:00:33;;;;;;;23.90;9.80;;;;;;;4.30;77.06;99635.27;103150;1304;112444;-71
2022/11/28 11:03:04;;;;;;;23.40;10.20;;;;;;;4.35;77.17;99632.27;103132;1304;99285;-70
2022/11/28 11:05:35;;;;;;;26.10;10.00;;;;;;;4.41;77.11;99627.66;103154;1300;108153;-72
2022/11/28 11:08:15;;;;;;;30.40;14.10;;;;;;;4.43;77.03;99628.45;103243;1297;99325;-71
2022/11/28 11:11:02;;;;;;;28.30;11.80;;;;;;;4.41;76.73;99628.72;103196;1295;99243;-72
2022/11/28 11:14:01;;;;;;;27.90;12.50;;;;;;;4.32;76.33;99627.81;103198;1304;112152;-71
2022/11/28 11:16:58;;;;;;;25.30;10.60;;;;;;;4.23;76.51;99628.16;103096;1296;99248;-71
2022/11/28 11:19:32;;;;;;;22.10;9.20;;;;;;;4.16;76.54;99625.96;103252;1304;107048;-70
2022/11/28 11:22:14;;;;;;;23.00;8.90;;;;;;;4.13;76.56;99621.86;103260;1297;99342;-70
2022/11/28 11:24:41;;;;;;;20.60;8.40;;;;;;;4.11;76.50;99625.44;103320;1297;99237;-71
2022/11/28 11:27:20;;;;;;;20.70;8.00;;;;;;;4.09;76.49;99620.79;103268;1296;112223;-70
2022/11/28 11:29:51;;;;;;;22.40;9.30;;;;;;;4.08;76.47;99620.27;103268;1295;96573;-69
2022/11/28 11:32:29;;;;;;;23.70;9.50;;;;;;;4.05;76.16;99619.37;103220;1303;107491;-71
2022/11/28 11:34:58;;;;;;;19.60;7.30;;;;;;;3.98;75.90;99620.48;103199;1297;99300;-71
2022/11/28 11:37:37;;;;;;;20.00;8.20;;;;;;;3.93;76.22;99627.34;103240;1297;96487;-71
2022/11/28 11:40:24;;;;;;;19.90;7.10;;;;;;;3.94;76.26;99626.95;103115;1303;112485;-70
2022/11/28 11:42:58;;;;;;;18.00;6.80;;;;;;;3.95;76.21;99624.81;103173;1289;99243;-70
2022/11/28 11:45:34;;;;;;;23.20;8.50;;;;;;;3.96;76.39;99621.80;103206;1297;106418;-71
2022/11/28 11:48:03;;;;;;;20.80;6.70;;;;;;;4.00;76.47;99619.89;103133;1305;99328;-70